sensor_id;sensor_type;location;lat;lon;timestamp;P1;durP1;ratioP1;P2;durP2;ratioP2
53843;SDS011;39744;53.314;5.710;2023-04-24T00:01:54;10.52;;;3.17;;
53843;SDS011;39744;53.314;5.710;2023-04-24T00:04:21;9.25;;;3.10;;
53843;SDS011;39744;53.314;5.710;2023-04-24T00:06:50;12.55;;;3.47;;
53843;SDS011;39744;53.314;5.710;2023-04-24T00:09:18;19.45;;;3.15;;
53843;SDS011;39744;53.314;5.710;2023-04-24T00:11:44;13.80;;;3.63;;
53843;SDS011;39744;53.314;5.710;2023-04-24T00:14:10;14.98;;;4.10;;
53843;SDS011;39744;53.314;5.710;2023-04-24T00:16:35;10.73;;;3.35;;
53843;SDS011;39744;53.314;5.710;2023-04-24T00:19:01;13.23;;;3.45;;
53843;SDS011;39744;53.314;5.710;2023-04-24T00:21:27;12.73;;;3.25;;
53843;SDS011;39744;53.314;5.710;2023-04-24T00:23:52;12.07;;;3.42;;
53843;SDS011;39744;53.314;5.710;2023-04-24T00:26:18;14.15;;;3.60;;
53843;SDS011;39744;53.314;5.710;2023-04-24T00:28:44;8.90;;;3.65;;
53843;SDS011;39744;53.314;5.710;2023-04-24T00:31:09;13.02;;;4.10;;
53843;SDS011;39744;53.314;5.710;2023-04-24T00:33:35;18.67;;;3.72;;
53843;SDS011;39744;53.314;5.710;2023-04-24T00:36:01;13.85;;;3.60;;
53843;SDS011;39744;53.314;5.710;2023-04-24T00:38:26;10.88;;;4.13;;
53843;SDS011;39744;53.314;5.710;2023-04-24T00:40:52;8.77;;;3.45;;
53843;SDS011;39744;53.314;5.710;2023-04-24T00:43:19;9.43;;;3.33;;
53843;SDS011;39744;53.314;5.710;2023-04-24T00:45:44;10.98;;;3.63;;
53843;SDS011;39744;53.314;5.710;2023-04-24T00:48:11;16.17;;;4.45;;
53843;SDS011;39744;53.314;5.710;2023-04-24T00:50:37;14.95;;;5.45;;
53843;SDS011;39744;53.314;5.710;2023-04-24T00:53:03;13.18;;;4.38;;
53843;SDS011;39744;53.314;5.710;2023-04-24T00:55:29;17.27;;;5.63;;
53843;SDS011;39744;53.314;5.710;2023-04-24T00:57:56;17.77;;;5.80;;
53843;SDS011;39744;53.314;5.710;2023-04-24T01:00:22;18.70;;;5.30;;
53843;SDS011;39744;53.314;5.710;2023-04-24T01:02:48;18.38;;;4.57;;
53843;SDS011;39744;53.314;5.710;2023-04-24T01:05:14;7.80;;;3.78;;
53843;SDS011;39744;53.314;5.710;2023-04-24T01:07:43;11.07;;;3.25;;
53843;SDS011;39744;53.314;5.710;2023-04-24T01:10:10;7.32;;;3.50;;
53843;SDS011;39744;53.314;5.710;2023-04-24T01:12:37;13.30;;;3.00;;
53843;SDS011;39744;53.314;5.710;2023-04-24T01:15:03;12.73;;;2.83;;
53843;SDS011;39744;53.314;5.710;2023-04-24T01:17:31;9.25;;;2.65;;
53843;SDS011;39744;53.314;5.710;2023-04-24T01:19:57;7.72;;;2.80;;
53843;SDS011;39744;53.314;5.710;2023-04-24T01:22:24;6.13;;;2.92;;
53843;SDS011;39744;53.314;5.710;2023-04-24T01:24:51;8.45;;;3.10;;
53843;SDS011;39744;53.314;5.710;2023-04-24T01:27:18;9.70;;;3.78;;
53843;SDS011;39744;53.314;5.710;2023-04-24T01:29:45;10.18;;;5.07;;
53843;SDS011;39744;53.314;5.710;2023-04-24T01:32:14;13.95;;;7.15;;
53843;SDS011;39744;53.314;5.710;2023-04-24T01:34:40;16.48;;;9.15;;
53843;SDS011;39744;53.314;5.710;2023-04-24T01:37:06;15.27;;;8.70;;
53843;SDS011;39744;53.314;5.710;2023-04-24T01:39:32;16.73;;;8.57;;
53843;SDS011;39744;53.314;5.710;2023-04-24T01:41:58;19.95;;;8.57;;
53843;SDS011;39744;53.314;5.710;2023-04-24T01:44:24;15.88;;;8.20;;
53843;SDS011;39744;53.314;5.710;2023-04-24T01:46:51;20.38;;;9.75;;
53843;SDS011;39744;53.314;5.710;2023-04-24T01:49:18;17.38;;;8.55;;
53843;SDS011;39744;53.314;5.710;2023-04-24T01:51:44;17.17;;;7.93;;
53843;SDS011;39744;53.314;5.710;2023-04-24T01:54:10;14.60;;;6.13;;
53843;SDS011;39744;53.314;5.710;2023-04-24T01:56:36;14.02;;;6.57;;
53843;SDS011;39744;53.314;5.710;2023-04-24T01:59:10;18.88;;;8.40;;
53843;SDS011;39744;53.314;5.710;2023-04-24T02:01:36;14.90;;;6.68;;
53843;SDS011;39744;53.314;5.710;2023-04-24T02:04:03;9.07;;;3.42;;
53843;SDS011;39744;53.314;5.710;2023-04-24T02:06:30;7.53;;;3.70;;
53843;SDS011;39744;53.314;5.710;2023-04-24T02:09:00;8.20;;;4.30;;
53843;SDS011;39744;53.314;5.710;2023-04-24T02:11:25;10.98;;;4.35;;
53843;SDS011;39744;53.314;5.710;2023-04-24T02:13:52;15.20;;;7.30;;
53843;SDS011;39744;53.314;5.710;2023-04-24T02:16:17;23.27;;;7.63;;
53843;SDS011;39744;53.314;5.710;2023-04-24T02:18:43;12.55;;;5.80;;
53843;SDS011;39744;53.314;5.710;2023-04-24T02:21:09;12.23;;;5.20;;
53843;SDS011;39744;53.314;5.710;2023-04-24T02:23:35;13.10;;;4.68;;
53843;SDS011;39744;53.314;5.710;2023-04-24T02:26:00;10.02;;;4.63;;
53843;SDS011;39744;53.314;5.710;2023-04-24T02:28:26;11.05;;;2.78;;
53843;SDS011;39744;53.314;5.710;2023-04-24T02:30:52;9.43;;;2.50;;
53843;SDS011;39744;53.314;5.710;2023-04-24T02:33:17;9.60;;;2.70;;
53843;SDS011;39744;53.314;5.710;2023-04-24T02:35:43;8.23;;;2.92;;
53843;SDS011;39744;53.314;5.710;2023-04-24T02:38:09;7.55;;;2.50;;
53843;SDS011;39744;53.314;5.710;2023-04-24T02:40:34;12.18;;;3.55;;
53843;SDS011;39744;53.314;5.710;2023-04-24T02:43:00;7.00;;;3.58;;
53843;SDS011;39744;53.314;5.710;2023-04-24T02:45:26;7.57;;;3.00;;
53843;SDS011;39744;53.314;5.710;2023-04-24T02:47:51;8.90;;;3.25;;
53843;SDS011;39744;53.314;5.710;2023-04-24T02:50:17;9.20;;;2.90;;
53843;SDS011;39744;53.314;5.710;2023-04-24T02:52:42;6.53;;;2.60;;
53843;SDS011;39744;53.314;5.710;2023-04-24T02:55:08;7.68;;;2.70;;
53843;SDS011;39744;53.314;5.710;2023-04-24T02:57:34;6.88;;;2.67;;
53843;SDS011;39744;53.314;5.710;2023-04-24T03:00:00;7.82;;;2.80;;
53843;SDS011;39744;53.314;5.710;2023-04-24T03:02:25;8.52;;;3.22;;
53843;SDS011;39744;53.314;5.710;2023-04-24T03:04:51;11.18;;;3.47;;
53843;SDS011;39744;53.314;5.710;2023-04-24T03:07:17;7.47;;;3.67;;
53843;SDS011;39744;53.314;5.710;2023-04-24T03:09:45;9.38;;;4.05;;
53843;SDS011;39744;53.314;5.710;2023-04-24T03:12:12;8.07;;;3.25;;
53843;SDS011;39744;53.314;5.710;2023-04-24T03:14:38;11.13;;;4.25;;
53843;SDS011;39744;53.314;5.710;2023-04-24T03:17:03;9.95;;;5.20;;
53843;SDS011;39744;53.314;5.710;2023-04-24T03:19:29;9.95;;;4.90;;
53843;SDS011;39744;53.314;5.710;2023-04-24T03:21:55;7.80;;;4.18;;
53843;SDS011;39744;53.314;5.710;2023-04-24T03:24:20;6.28;;;3.22;;
53843;SDS011;39744;53.314;5.710;2023-04-24T03:26:47;6.43;;;3.25;;
53843;SDS011;39744;53.314;5.710;2023-04-24T03:29:13;8.63;;;2.38;;
53843;SDS011;39744;53.314;5.710;2023-04-24T03:31:38;4.70;;;2.08;;
53843;SDS011;39744;53.314;5.710;2023-04-24T03:34:04;5.13;;;2.65;;
53843;SDS011;39744;53.314;5.710;2023-04-24T03:36:29;7.60;;;2.30;;
53843;SDS011;39744;53.314;5.710;2023-04-24T03:38:56;4.65;;;2.08;;
53843;SDS011;39744;53.314;5.710;2023-04-24T03:41:21;6.45;;;2.30;;
53843;SDS011;39744;53.314;5.710;2023-04-24T03:43:47;10.60;;;3.38;;
53843;SDS011;39744;53.314;5.710;2023-04-24T03:46:13;7.10;;;2.85;;
53843;SDS011;39744;53.314;5.710;2023-04-24T03:48:39;8.93;;;3.58;;
53843;SDS011;39744;53.314;5.710;2023-04-24T03:51:04;7.10;;;3.20;;
53843;SDS011;39744;53.314;5.710;2023-04-24T03:53:30;9.05;;;4.47;;
53843;SDS011;39744;53.314;5.710;2023-04-24T03:55:56;12.32;;;5.72;;
53843;SDS011;39744;53.314;5.710;2023-04-24T03:58:21;12.98;;;6.60;;
53843;SDS011;39744;53.314;5.710;2023-04-24T04:00:47;12.75;;;6.40;;
53843;SDS011;39744;53.314;5.710;2023-04-24T04:03:13;13.43;;;6.25;;
53843;SDS011;39744;53.314;5.710;2023-04-24T04:05:39;11.57;;;4.93;;
53843;SDS011;39744;53.314;5.710;2023-04-24T04:08:05;17.00;;;6.50;;
53843;SDS011;39744;53.314;5.710;2023-04-24T04:10:31;10.43;;;5.05;;
53843;SDS011;39744;53.314;5.710;2023-04-24T04:12:56;7.10;;;3.28;;
53843;SDS011;39744;53.314;5.710;2023-04-24T04:15:23;8.18;;;3.90;;
53843;SDS011;39744;53.314;5.710;2023-04-24T04:17:48;7.97;;;3.80;;
53843;SDS011;39744;53.314;5.710;2023-04-24T04:20:14;10.07;;;4.55;;
53843;SDS011;39744;53.314;5.710;2023-04-24T04:22:40;10.48;;;4.80;;
53843;SDS011;39744;53.314;5.710;2023-04-24T04:25:05;15.75;;;6.20;;
53843;SDS011;39744;53.314;5.710;2023-04-24T04:27:31;23.90;;;9.23;;
53843;SDS011;39744;53.314;5.710;2023-04-24T04:30:00;25.40;;;10.05;;
53843;SDS011;39744;53.314;5.710;2023-04-24T04:32:30;20.45;;;9.30;;
53843;SDS011;39744;53.314;5.710;2023-04-24T04:34:58;16.67;;;8.00;;
53843;SDS011;39744;53.314;5.710;2023-04-24T04:37:27;23.20;;;9.18;;
53843;SDS011;39744;53.314;5.710;2023-04-24T04:39:59;20.73;;;9.40;;
53843;SDS011;39744;53.314;5.710;2023-04-24T04:42:26;20.23;;;9.45;;
53843;SDS011;39744;53.314;5.710;2023-04-24T04:44:55;22.67;;;9.55;;
53843;SDS011;39744;53.314;5.710;2023-04-24T04:47:22;18.83;;;9.35;;
53843;SDS011;39744;53.314;5.710;2023-04-24T04:49:48;15.55;;;6.55;;
53843;SDS011;39744;53.314;5.710;2023-04-24T04:52:14;12.77;;;5.28;;
53843;SDS011;39744;53.314;5.710;2023-04-24T04:54:41;9.10;;;3.95;;
53843;SDS011;39744;53.314;5.710;2023-04-24T04:57:07;6.25;;;3.85;;
53843;SDS011;39744;53.314;5.710;2023-04-24T04:59:33;7.20;;;3.85;;
53843;SDS011;39744;53.314;5.710;2023-04-24T05:01:58;11.40;;;3.78;;
53843;SDS011;39744;53.314;5.710;2023-04-24T05:04:24;11.23;;;4.53;;
53843;SDS011;39744;53.314;5.710;2023-04-24T05:09:27;8.93;;;4.60;;
53843;SDS011;39744;53.314;5.710;2023-04-24T05:11:54;8.32;;;4.50;;
53843;SDS011;39744;53.314;5.710;2023-04-24T05:14:21;10.57;;;3.95;;
53843;SDS011;39744;53.314;5.710;2023-04-24T05:16:46;9.82;;;5.30;;
53843;SDS011;39744;53.314;5.710;2023-04-24T05:19:12;14.73;;;6.78;;
53843;SDS011;39744;53.314;5.710;2023-04-24T05:21:39;14.52;;;5.78;;
53843;SDS011;39744;53.314;5.710;2023-04-24T05:24:05;12.10;;;4.75;;
53843;SDS011;39744;53.314;5.710;2023-04-24T05:26:31;11.75;;;4.43;;
53843;SDS011;39744;53.314;5.710;2023-04-24T05:28:56;10.27;;;5.32;;
53843;SDS011;39744;53.314;5.710;2023-04-24T05:31:22;10.00;;;4.47;;
53843;SDS011;39744;53.314;5.710;2023-04-24T05:33:48;7.07;;;3.53;;
53843;SDS011;39744;53.314;5.710;2023-04-24T05:36:13;9.13;;;3.78;;
53843;SDS011;39744;53.314;5.710;2023-04-24T05:38:39;7.88;;;3.83;;
53843;SDS011;39744;53.314;5.710;2023-04-24T05:41:05;11.20;;;4.80;;
53843;SDS011;39744;53.314;5.710;2023-04-24T05:43:31;10.02;;;3.65;;
53843;SDS011;39744;53.314;5.710;2023-04-24T05:45:57;5.57;;;2.75;;
53843;SDS011;39744;53.314;5.710;2023-04-24T05:48:23;10.57;;;3.03;;
53843;SDS011;39744;53.314;5.710;2023-04-24T05:50:48;6.72;;;3.00;;
53843;SDS011;39744;53.314;5.710;2023-04-24T05:53:14;8.10;;;2.97;;
53843;SDS011;39744;53.314;5.710;2023-04-24T05:55:40;7.18;;;3.60;;
53843;SDS011;39744;53.314;5.710;2023-04-24T05:58:06;7.18;;;2.83;;
53843;SDS011;39744;53.314;5.710;2023-04-24T06:00:31;7.30;;;2.78;;
53843;SDS011;39744;53.314;5.710;2023-04-24T06:02:58;9.63;;;3.83;;
53843;SDS011;39744;53.314;5.710;2023-04-24T06:05:25;14.35;;;6.30;;
53843;SDS011;39744;53.314;5.710;2023-04-24T06:07:50;15.27;;;7.13;;
53843;SDS011;39744;53.314;5.710;2023-04-24T06:10:16;16.88;;;8.55;;
53843;SDS011;39744;53.314;5.710;2023-04-24T06:12:42;24.73;;;9.93;;
53843;SDS011;39744;53.314;5.710;2023-04-24T06:15:07;26.27;;;12.50;;
53843;SDS011;39744;53.314;5.710;2023-04-24T06:17:33;29.83;;;13.02;;
53843;SDS011;39744;53.314;5.710;2023-04-24T06:19:59;30.58;;;12.73;;
53843;SDS011;39744;53.314;5.710;2023-04-24T06:22:25;33.85;;;15.40;;
53843;SDS011;39744;53.314;5.710;2023-04-24T06:24:50;33.45;;;16.27;;
53843;SDS011;39744;53.314;5.710;2023-04-24T06:27:16;29.42;;;14.32;;
53843;SDS011;39744;53.314;5.710;2023-04-24T06:29:42;28.17;;;14.02;;
53843;SDS011;39744;53.314;5.710;2023-04-24T06:32:07;33.78;;;15.65;;
53843;SDS011;39744;53.314;5.710;2023-04-24T06:34:33;28.83;;;12.10;;
53843;SDS011;39744;53.314;5.710;2023-04-24T06:36:59;24.20;;;9.57;;
53843;SDS011;39744;53.314;5.710;2023-04-24T06:39:25;21.63;;;9.23;;
53843;SDS011;39744;53.314;5.710;2023-04-24T06:41:51;28.25;;;12.52;;
53843;SDS011;39744;53.314;5.710;2023-04-24T06:44:16;27.92;;;13.77;;
53843;SDS011;39744;53.314;5.710;2023-04-24T06:46:42;33.22;;;14.25;;
53843;SDS011;39744;53.314;5.710;2023-04-24T06:49:08;31.58;;;15.63;;
53843;SDS011;39744;53.314;5.710;2023-04-24T06:51:34;33.00;;;15.85;;
53843;SDS011;39744;53.314;5.710;2023-04-24T06:53:59;31.98;;;14.80;;
53843;SDS011;39744;53.314;5.710;2023-04-24T06:56:25;32.85;;;16.08;;
53843;SDS011;39744;53.314;5.710;2023-04-24T06:58:51;30.70;;;14.73;;
53843;SDS011;39744;53.314;5.710;2023-04-24T07:01:17;30.00;;;15.63;;
53843;SDS011;39744;53.314;5.710;2023-04-24T07:03:42;31.95;;;16.35;;
53843;SDS011;39744;53.314;5.710;2023-04-24T07:06:08;32.97;;;16.17;;
53843;SDS011;39744;53.314;5.710;2023-04-24T07:08:36;29.67;;;15.18;;
53843;SDS011;39744;53.314;5.710;2023-04-24T07:11:01;30.02;;;14.35;;
53843;SDS011;39744;53.314;5.710;2023-04-24T07:13:27;26.95;;;11.65;;
53843;SDS011;39744;53.314;5.710;2023-04-24T07:15:53;22.35;;;11.75;;
53843;SDS011;39744;53.314;5.710;2023-04-24T07:18:21;19.63;;;10.35;;
53843;SDS011;39744;53.314;5.710;2023-04-24T07:20:47;20.17;;;10.43;;
53843;SDS011;39744;53.314;5.710;2023-04-24T07:23:15;20.83;;;8.82;;
53843;SDS011;39744;53.314;5.710;2023-04-24T07:25:40;22.50;;;8.82;;
53843;SDS011;39744;53.314;5.710;2023-04-24T07:28:06;15.55;;;7.35;;
53843;SDS011;39744;53.314;5.710;2023-04-24T07:30:32;15.88;;;7.15;;
53843;SDS011;39744;53.314;5.710;2023-04-24T07:32:58;14.40;;;7.00;;
53843;SDS011;39744;53.314;5.710;2023-04-24T07:35:24;16.25;;;6.88;;
53843;SDS011;39744;53.314;5.710;2023-04-24T07:37:51;17.60;;;6.68;;
53843;SDS011;39744;53.314;5.710;2023-04-24T07:40:18;13.23;;;6.43;;
53843;SDS011;39744;53.314;5.710;2023-04-24T07:42:43;14.68;;;6.85;;
53843;SDS011;39744;53.314;5.710;2023-04-24T07:45:09;17.85;;;7.88;;
53843;SDS011;39744;53.314;5.710;2023-04-24T07:47:35;15.15;;;7.65;;
53843;SDS011;39744;53.314;5.710;2023-04-24T07:50:02;16.10;;;7.30;;
53843;SDS011;39744;53.314;5.710;2023-04-24T07:52:28;14.30;;;7.15;;
53843;SDS011;39744;53.314;5.710;2023-04-24T07:54:54;18.33;;;8.23;;
53843;SDS011;39744;53.314;5.710;2023-04-24T07:57:24;15.25;;;7.03;;
53843;SDS011;39744;53.314;5.710;2023-04-24T07:59:50;14.38;;;7.10;;
53843;SDS011;39744;53.314;5.710;2023-04-24T08:02:15;18.38;;;7.60;;
53843;SDS011;39744;53.314;5.710;2023-04-24T08:04:41;18.02;;;7.63;;
53843;SDS011;39744;53.314;5.710;2023-04-24T08:07:07;20.45;;;8.07;;
53843;SDS011;39744;53.314;5.710;2023-04-24T08:09:33;24.30;;;7.55;;
53843;SDS011;39744;53.314;5.710;2023-04-24T08:11:58;15.68;;;6.13;;
53843;SDS011;39744;53.314;5.710;2023-04-24T08:14:24;19.70;;;6.65;;
53843;SDS011;39744;53.314;5.710;2023-04-24T08:16:50;14.90;;;6.03;;
53843;SDS011;39744;53.314;5.710;2023-04-24T08:19:17;15.50;;;5.45;;
53843;SDS011;39744;53.314;5.710;2023-04-24T08:21:42;15.73;;;4.65;;
53843;SDS011;39744;53.314;5.710;2023-04-24T08:24:08;16.15;;;5.53;;
53843;SDS011;39744;53.314;5.710;2023-04-24T08:26:34;10.05;;;4.80;;
53843;SDS011;39744;53.314;5.710;2023-04-24T08:28:59;15.02;;;4.43;;
53843;SDS011;39744;53.314;5.710;2023-04-24T08:31:25;14.38;;;4.63;;
53843;SDS011;39744;53.314;5.710;2023-04-24T08:33:51;14.55;;;5.07;;
53843;SDS011;39744;53.314;5.710;2023-04-24T08:36:17;15.90;;;4.35;;
53843;SDS011;39744;53.314;5.710;2023-04-24T08:38:43;14.45;;;3.67;;
53843;SDS011;39744;53.314;5.710;2023-04-24T08:41:08;8.93;;;3.13;;
53843;SDS011;39744;53.314;5.710;2023-04-24T08:43:34;8.95;;;3.15;;
53843;SDS011;39744;53.314;5.710;2023-04-24T08:46:03;10.75;;;3.50;;
53843;SDS011;39744;53.314;5.710;2023-04-24T08:48:29;10.32;;;4.07;;
53843;SDS011;39744;53.314;5.710;2023-04-24T08:50:56;14.77;;;4.25;;
53843;SDS011;39744;53.314;5.710;2023-04-24T08:53:23;12.68;;;3.88;;
53843;SDS011;39744;53.314;5.710;2023-04-24T08:55:50;12.68;;;4.32;;
53843;SDS011;39744;53.314;5.710;2023-04-24T08:58:18;17.35;;;5.07;;
53843;SDS011;39744;53.314;5.710;2023-04-24T09:00:44;16.05;;;4.43;;
53843;SDS011;39744;53.314;5.710;2023-04-24T09:03:11;15.90;;;4.45;;
53843;SDS011;39744;53.314;5.710;2023-04-24T09:05:40;19.90;;;5.35;;
53843;SDS011;39744;53.314;5.710;2023-04-24T09:08:10;13.32;;;3.70;;
53843;SDS011;39744;53.314;5.710;2023-04-24T09:10:38;12.15;;;3.45;;
53843;SDS011;39744;53.314;5.710;2023-04-24T09:13:04;12.85;;;3.22;;
53843;SDS011;39744;53.314;5.710;2023-04-24T09:15:31;10.23;;;3.30;;
53843;SDS011;39744;53.314;5.710;2023-04-24T09:17:57;12.82;;;3.47;;
53843;SDS011;39744;53.314;5.710;2023-04-24T09:20:23;13.40;;;2.97;;
53843;SDS011;39744;53.314;5.710;2023-04-24T09:22:48;7.20;;;2.60;;
53843;SDS011;39744;53.314;5.710;2023-04-24T09:25:20;13.02;;;3.13;;
53843;SDS011;39744;53.314;5.710;2023-04-24T09:27:46;13.48;;;3.10;;
53843;SDS011;39744;53.314;5.710;2023-04-24T09:30:12;12.57;;;3.67;;
53843;SDS011;39744;53.314;5.710;2023-04-24T09:32:39;12.30;;;2.80;;
53843;SDS011;39744;53.314;5.710;2023-04-24T09:35:06;11.40;;;3.05;;
53843;SDS011;39744;53.314;5.710;2023-04-24T09:37:43;13.35;;;3.40;;
53843;SDS011;39744;53.314;5.710;2023-04-24T09:40:17;16.73;;;2.90;;
53843;SDS011;39744;53.314;5.710;2023-04-24T09:42:52;14.77;;;3.08;;
53843;SDS011;39744;53.314;5.710;2023-04-24T09:45:19;16.42;;;3.60;;
53843;SDS011;39744;53.314;5.710;2023-04-24T09:47:45;16.73;;;3.30;;
53843;SDS011;39744;53.314;5.710;2023-04-24T09:50:13;14.13;;;3.10;;
53843;SDS011;39744;53.314;5.710;2023-04-24T09:52:43;11.48;;;3.17;;
53843;SDS011;39744;53.314;5.710;2023-04-24T09:55:19;11.15;;;3.08;;
53843;SDS011;39744;53.314;5.710;2023-04-24T09:57:51;12.65;;;2.88;;
53843;SDS011;39744;53.314;5.710;2023-04-24T10:00:29;11.75;;;2.60;;
53843;SDS011;39744;53.314;5.710;2023-04-24T10:02:58;14.13;;;2.50;;
53843;SDS011;39744;53.314;5.710;2023-04-24T10:05:30;10.10;;;2.15;;
53843;SDS011;39744;53.314;5.710;2023-04-24T10:10:29;8.77;;;2.30;;
53843;SDS011;39744;53.314;5.710;2023-04-24T10:12:59;8.98;;;2.45;;
53843;SDS011;39744;53.314;5.710;2023-04-24T10:15:26;11.68;;;2.63;;
53843;SDS011;39744;53.314;5.710;2023-04-24T10:17:52;13.35;;;3.10;;
53843;SDS011;39744;53.314;5.710;2023-04-24T10:20:22;17.45;;;3.03;;
53843;SDS011;39744;53.314;5.710;2023-04-24T10:22:50;14.93;;;2.90;;
53843;SDS011;39744;53.314;5.710;2023-04-24T10:25:22;10.63;;;2.55;;
53843;SDS011;39744;53.314;5.710;2023-04-24T10:27:50;14.13;;;2.72;;
53843;SDS011;39744;53.314;5.710;2023-04-24T10:30:17;8.40;;;2.75;;
53843;SDS011;39744;53.314;5.710;2023-04-24T10:32:44;15.10;;;2.47;;
53843;SDS011;39744;53.314;5.710;2023-04-24T10:35:10;13.30;;;2.40;;
53843;SDS011;39744;53.314;5.710;2023-04-24T10:37:39;9.55;;;2.28;;
53843;SDS011;39744;53.314;5.710;2023-04-24T10:40:07;8.27;;;2.22;;
53843;SDS011;39744;53.314;5.710;2023-04-24T10:42:35;8.10;;;1.90;;
53843;SDS011;39744;53.314;5.710;2023-04-24T10:45:05;15.77;;;2.60;;
53843;SDS011;39744;53.314;5.710;2023-04-24T10:47:39;9.88;;;2.40;;
53843;SDS011;39744;53.314;5.710;2023-04-24T10:50:09;14.20;;;2.45;;
53843;SDS011;39744;53.314;5.710;2023-04-24T10:52:45;12.98;;;2.70;;
53843;SDS011;39744;53.314;5.710;2023-04-24T10:55:12;7.38;;;2.28;;
53843;SDS011;39744;53.314;5.710;2023-04-24T10:57:39;11.43;;;2.67;;
53843;SDS011;39744;53.314;5.710;2023-04-24T11:00:15;8.05;;;2.13;;
53843;SDS011;39744;53.314;5.710;2023-04-24T11:02:45;12.80;;;2.08;;
53843;SDS011;39744;53.314;5.710;2023-04-24T11:05:17;7.05;;;1.90;;
53843;SDS011;39744;53.314;5.710;2023-04-24T11:10:44;7.35;;;1.80;;
53843;SDS011;39744;53.314;5.710;2023-04-24T11:13:15;12.68;;;2.05;;
53843;SDS011;39744;53.314;5.710;2023-04-24T11:15:41;5.82;;;1.52;;
53843;SDS011;39744;53.314;5.710;2023-04-24T11:18:12;5.93;;;1.50;;
53843;SDS011;39744;53.314;5.710;2023-04-24T11:20:43;7.10;;;1.98;;
53843;SDS011;39744;53.314;5.710;2023-04-24T11:23:09;7.30;;;1.70;;
53843;SDS011;39744;53.314;5.710;2023-04-24T11:25:37;6.78;;;1.70;;
53843;SDS011;39744;53.314;5.710;2023-04-24T11:28:03;9.45;;;2.10;;
53843;SDS011;39744;53.314;5.710;2023-04-24T11:30:30;6.65;;;1.52;;
53843;SDS011;39744;53.314;5.710;2023-04-24T11:33:02;8.45;;;1.70;;
53843;SDS011;39744;53.314;5.710;2023-04-24T11:35:29;8.85;;;1.75;;
53843;SDS011;39744;53.314;5.710;2023-04-24T11:37:55;9.23;;;1.92;;
53843;SDS011;39744;53.314;5.710;2023-04-24T11:40:22;9.80;;;1.90;;
53843;SDS011;39744;53.314;5.710;2023-04-24T11:42:49;7.95;;;1.63;;
53843;SDS011;39744;53.314;5.710;2023-04-24T11:45:17;6.88;;;1.20;;
53843;SDS011;39744;53.314;5.710;2023-04-24T11:47:43;8.52;;;1.58;;
53843;SDS011;39744;53.314;5.710;2023-04-24T11:50:28;7.50;;;1.73;;
53843;SDS011;39744;53.314;5.710;2023-04-24T11:52:54;7.03;;;1.38;;
53843;SDS011;39744;53.314;5.710;2023-04-24T11:57:47;8.93;;;1.20;;
53843;SDS011;39744;53.314;5.710;2023-04-24T12:00:15;8.48;;;1.20;;
53843;SDS011;39744;53.314;5.710;2023-04-24T12:03:08;6.60;;;1.50;;
53843;SDS011;39744;53.314;5.710;2023-04-24T12:05:34;9.13;;;1.70;;
53843;SDS011;39744;53.314;5.710;2023-04-24T12:08:00;6.45;;;1.50;;
53843;SDS011;39744;53.314;5.710;2023-04-24T12:10:27;5.75;;;1.50;;
53843;SDS011;39744;53.314;5.710;2023-04-24T12:12:55;6.93;;;1.58;;
53843;SDS011;39744;53.314;5.710;2023-04-24T12:15:21;8.18;;;1.48;;
53843;SDS011;39744;53.314;5.710;2023-04-24T12:17:47;9.10;;;1.60;;
53843;SDS011;39744;53.314;5.710;2023-04-24T12:20:15;4.18;;;1.10;;
53843;SDS011;39744;53.314;5.710;2023-04-24T12:22:49;4.65;;;1.10;;
53843;SDS011;39744;53.314;5.710;2023-04-24T12:25:18;5.28;;;1.13;;
53843;SDS011;39744;53.314;5.710;2023-04-24T12:27:45;5.78;;;1.20;;
53843;SDS011;39744;53.314;5.710;2023-04-24T12:30:15;5.30;;;1.13;;
53843;SDS011;39744;53.314;5.710;2023-04-24T12:32:42;5.53;;;1.50;;
53843;SDS011;39744;53.314;5.710;2023-04-24T12:35:13;3.00;;;0.95;;
53843;SDS011;39744;53.314;5.710;2023-04-24T12:37:43;9.50;;;1.63;;
53843;SDS011;39744;53.314;5.710;2023-04-24T12:40:09;10.07;;;1.67;;
53843;SDS011;39744;53.314;5.710;2023-04-24T12:42:41;6.15;;;1.65;;
53843;SDS011;39744;53.314;5.710;2023-04-24T12:45:12;9.95;;;2.22;;
53843;SDS011;39744;53.314;5.710;2023-04-24T12:47:38;7.95;;;1.70;;
53843;SDS011;39744;53.314;5.710;2023-04-24T12:50:05;12.05;;;2.00;;
53843;SDS011;39744;53.314;5.710;2023-04-24T12:52:32;9.85;;;2.90;;
53843;SDS011;39744;53.314;5.710;2023-04-24T12:54:59;11.07;;;3.13;;
53843;SDS011;39744;53.314;5.710;2023-04-24T12:57:26;18.20;;;2.90;;
53843;SDS011;39744;53.314;5.710;2023-04-24T12:59:57;11.82;;;2.58;;
53843;SDS011;39744;53.314;5.710;2023-04-24T13:02:24;13.43;;;2.70;;
53843;SDS011;39744;53.314;5.710;2023-04-24T13:04:51;9.73;;;2.15;;
53843;SDS011;39744;53.314;5.710;2023-04-24T13:07:17;8.48;;;2.08;;
53843;SDS011;39744;53.314;5.710;2023-04-24T13:09:43;8.85;;;2.10;;
53843;SDS011;39744;53.314;5.710;2023-04-24T13:12:10;10.52;;;2.03;;
53843;SDS011;39744;53.314;5.710;2023-04-24T13:14:36;9.93;;;2.28;;
53843;SDS011;39744;53.314;5.710;2023-04-24T13:17:02;12.40;;;3.13;;
53843;SDS011;39744;53.314;5.710;2023-04-24T13:19:29;11.30;;;2.60;;
53843;SDS011;39744;53.314;5.710;2023-04-24T13:21:55;7.13;;;2.15;;
53843;SDS011;39744;53.314;5.710;2023-04-24T13:24:22;7.88;;;2.45;;
53843;SDS011;39744;53.314;5.710;2023-04-24T13:26:54;9.13;;;2.45;;
53843;SDS011;39744;53.314;5.710;2023-04-24T13:29:21;12.52;;;2.88;;
53843;SDS011;39744;53.314;5.710;2023-04-24T13:31:47;8.35;;;2.92;;
53843;SDS011;39744;53.314;5.710;2023-04-24T13:34:14;11.95;;;2.97;;
53843;SDS011;39744;53.314;5.710;2023-04-24T13:36:40;10.75;;;2.80;;
53843;SDS011;39744;53.314;5.710;2023-04-24T13:39:06;12.90;;;3.15;;
53843;SDS011;39744;53.314;5.710;2023-04-24T13:41:34;13.15;;;3.55;;
53843;SDS011;39744;53.314;5.710;2023-04-24T13:44:01;17.55;;;3.70;;
53843;SDS011;39744;53.314;5.710;2023-04-24T13:46:27;13.25;;;3.15;;
53843;SDS011;39744;53.314;5.710;2023-04-24T13:48:53;8.60;;;3.28;;
53843;SDS011;39744;53.314;5.710;2023-04-24T13:51:18;13.82;;;3.70;;
53843;SDS011;39744;53.314;5.710;2023-04-24T13:53:44;15.27;;;4.20;;
53843;SDS011;39744;53.314;5.710;2023-04-24T13:56:10;15.55;;;3.97;;
53843;SDS011;39744;53.314;5.710;2023-04-24T13:58:37;9.63;;;3.22;;
53843;SDS011;39744;53.314;5.710;2023-04-24T14:01:03;14.63;;;3.83;;
53843;SDS011;39744;53.314;5.710;2023-04-24T14:03:29;15.35;;;4.15;;
53843;SDS011;39744;53.314;5.710;2023-04-24T14:05:54;12.15;;;3.17;;
53843;SDS011;39744;53.314;5.710;2023-04-24T14:08:20;14.75;;;3.40;;
53843;SDS011;39744;53.314;5.710;2023-04-24T14:10:46;14.85;;;3.15;;
53843;SDS011;39744;53.314;5.710;2023-04-24T14:13:12;13.27;;;3.00;;
53843;SDS011;39744;53.314;5.710;2023-04-24T14:15:38;15.20;;;4.00;;
53843;SDS011;39744;53.314;5.710;2023-04-24T14:18:04;13.65;;;3.85;;
53843;SDS011;39744;53.314;5.710;2023-04-24T14:20:30;14.10;;;4.07;;
53843;SDS011;39744;53.314;5.710;2023-04-24T14:22:56;11.32;;;3.30;;
53843;SDS011;39744;53.314;5.710;2023-04-24T14:25:24;18.02;;;4.65;;
53843;SDS011;39744;53.314;5.710;2023-04-24T14:27:50;20.50;;;4.38;;
53843;SDS011;39744;53.314;5.710;2023-04-24T14:30:16;14.77;;;3.10;;
53843;SDS011;39744;53.314;5.710;2023-04-24T14:32:41;16.05;;;4.18;;
53843;SDS011;39744;53.314;5.710;2023-04-24T14:35:07;17.58;;;4.10;;
53843;SDS011;39744;53.314;5.710;2023-04-24T14:37:33;15.18;;;3.50;;
53843;SDS011;39744;53.314;5.710;2023-04-24T14:39:59;15.07;;;3.97;;
53843;SDS011;39744;53.314;5.710;2023-04-24T14:42:24;11.30;;;3.58;;
53843;SDS011;39744;53.314;5.710;2023-04-24T14:44:50;15.50;;;4.40;;
53843;SDS011;39744;53.314;5.710;2023-04-24T14:47:16;16.50;;;4.53;;